Time;durP1;ratioP1;P1;durP2;ratioP2;P2;SDS_P1;SDS_P2;PMS_P1;PMS_P2;Temp;Humidity;BMP_temperature;BMP_pressure;BME280_temperature;BME280_humidity;BME280_pressure;Samples;Min_cycle;Max_cycle;Signal;HPM_P1;HPM_P2
2023/03/28 00:00:20;;;;;;;;;;;;;;;18.55;56.71;100899.86;2311960;77;50222;-72
2023/03/28 00:03:22;;;;;;;;;;;;;;;18.44;56.94;100915.33;2280688;77;50626;-73
2023/03/28 00:06:25;;;;;;;;;;;;;;;18.44;57.08;100915.84;2266289;77;50097;-73
2023/03/28 00:09:26;;;;;;;;;;;;;;;18.52;56.97;100928.36;2245629;78;50397;-73
2023/03/28 00:12:28;;;;;;;;;;;;;;;18.58;56.82;100933.86;2275282;78;51526;-74
2023/03/28 00:15:29;;;;;;;;;;;;;;;18.60;56.71;100941.70;2275210;77;50066;-73
2023/03/28 00:18:31;;;;;;;;;;;;;;;18.59;56.64;100934.69;2244816;78;51136;-73
2023/03/28 00:21:36;;;;;;;;;;;;;;;18.60;56.63;100941.70;2245169;78;50583;-73
2023/03/28 00:24:38;;;;;;;;;;;;;;;18.56;56.62;100950.62;2279579;76;51631;-73
2023/03/28 00:27:39;;;;;;;;;;;;;;;18.52;56.66;100923.00;2293168;76;50039;-72
2023/03/28 00:30:41;;;;;;;;;;;;;;;18.47;56.75;100931.08;2280863;77;51540;-72
2023/03/28 00:33:46;;;;;;;;;;;;;;;18.42;56.88;100930.77;2311776;77;50216;-72
2023/03/28 00:36:46;;;;;;;;;;;;;;;18.39;57.04;100942.32;2281018;77;22348;-74
2023/03/28 00:39:50;;;;;;;;;;;;;;;18.40;57.13;100946.69;2280768;77;50651;-73
2023/03/28 00:42:52;;;;;;;;;;;;;;;18.46;57.14;100954.84;2280539;77;52476;-73
2023/03/28 00:45:54;;;;;;;;;;;;;;;18.56;56.97;100956.48;2280757;75;51453;-73
2023/03/28 00:49:02;;;;;;;;;;;;;;;18.64;56.80;100963.97;2323734;76;50738;-72
2023/03/28 00:52:04;;;;;;;;;;;;;;;18.66;56.71;100966.48;2311996;77;51514;-72
2023/03/28 00:55:07;;;;;;;;;;;;;;;18.65;56.69;100964.80;2280802;77;52384;-73
2023/03/28 00:58:10;;;;;;;;;;;;;;;18.64;56.71;100971.18;2311903;77;50501;-74
2023/03/28 01:01:12;;;;;;;;;;;;;;;18.63;56.79;100972.20;2310417;76;51579;-73
2023/03/28 01:04:19;;;;;;;;;;;;;;;18.61;56.75;100975.55;2311582;77;50103;-73
2023/03/28 01:07:17;;;;;;;;;;;;;;;18.57;56.82;100979.07;2311512;76;22336;-72
2023/03/28 01:10:19;;;;;;;;;;;;;;;18.56;56.84;100983.28;2311816;77;50408;-72
2023/03/28 01:13:22;;;;;;;;;;;;;;;18.46;56.98;100987.00;2311659;77;51533;-72
2023/03/28 01:16:24;;;;;;;;;;;;;;;18.44;57.13;100993.54;2311909;76;53632;-72
2023/03/28 01:19:44;;;;;;;;;;;;;;;18.47;57.21;101002.56;2293070;77;51723;-72
2023/03/28 01:22:56;;;;;;;;;;;;;;;18.55;57.13;101003.03;2311805;77;51464;-72
2023/03/28 01:25:59;;;;;;;;;;;;;;;18.61;56.90;100997.00;2311522;77;51493;-74
2023/03/28 01:29:05;;;;;;;;;;;;;;;18.62;56.85;101003.50;2306863;76;50821;-73
2023/03/28 01:32:11;;;;;;;;;;;;;;;18.63;56.87;101016.42;2311007;76;50698;-73
2023/03/28 01:35:20;;;;;;;;;;;;;;;18.62;56.81;101020.09;2311568;76;51390;-73
2023/03/28 01:38:26;;;;;;;;;;;;;;;18.59;56.81;101020.45;2274320;77;51527;-73
2023/03/28 01:41:30;;;;;;;;;;;;;;;18.56;56.79;101024.31;2311782;76;51488;-73
2023/03/28 01:44:39;;;;;;;;;;;;;;;18.52;56.88;101022.15;2279350;77;52359;-73
2023/03/28 01:47:41;;;;;;;;;;;;;;;18.46;56.97;101027.19;2322708;76;51547;-73
2023/03/28 01:50:53;;;;;;;;;;;;;;;18.43;57.05;101028.88;2312480;75;50362;-74
2023/03/28 01:54:13;;;;;;;;;;;;;;;18.41;57.28;101030.89;2311280;76;51446;-73
2023/03/28 01:57:16;;;;;;;;;;;;;;;18.50;57.24;101034.40;2280369;77;50995;-72
2023/03/28 02:00:21;;;;;;;;;;;;;;;18.56;57.11;101036.88;2311827;77;51533;-73
2023/03/28 02:03:30;;;;;;;;;;;;;;;18.57;57.04;101046.58;2311654;77;50656;-73
2023/03/28 02:06:33;;;;;;;;;;;;;;;18.56;57.01;101046.27;2311813;77;50308;-73
2023/03/28 02:09:35;;;;;;;;;;;;;;;18.56;57.00;101063.69;2280342;77;51759;-73
2023/03/28 02:12:38;;;;;;;;;;;;;;;18.52;57.02;101065.02;2311751;76;51328;-72
2023/03/28 02:15:41;;;;;;;;;;;;;;;18.46;57.15;101071.91;2310641;75;51435;-73
2023/03/28 02:18:44;;;;;;;;;;;;;;;18.40;57.22;101073.95;2323512;76;50387;-73
2023/03/28 02:22:00;;;;;;;;;;;;;;;18.36;57.34;101061.38;2280501;77;52420;-73
2023/03/28 02:25:01;;;;;;;;;;;;;;;18.30;57.51;101067.44;2311562;77;50236;-74
2023/03/28 02:28:04;;;;;;;;;;;;;;;18.35;57.57;101076.30;2311829;77;50713;-74
2023/03/28 02:31:06;;;;;;;;;;;;;;;18.40;57.51;101066.74;2311757;77;51486;-73
2023/03/28 02:34:08;;;;;;;;;;;;;;;18.48;57.46;101073.41;2280316;77;50764;-75
2023/03/28 02:37:11;;;;;;;;;;;;;;;18.59;57.14;101079.41;2281077;77;51505;-74
2023/03/28 02:40:17;;;;;;;;;;;;;;;18.63;56.93;101078.07;2311487;77;51390;-74
2023/03/28 02:43:27;;;;;;;;;;;;;;;18.64;56.84;101078.39;2311220;76;50678;-74
2023/03/28 02:46:29;;;;;;;;;;;;;;;18.63;56.84;101078.07;2279441;75;51277;-74
2023/03/28 02:49:47;;;;;;;;;;;;;;;18.60;56.86;101081.07;2293395;76;51488;-74
2023/03/28 02:53:03;;;;;;;;;;;;;;;18.56;56.87;101083.27;2312002;77;51515;-73
2023/03/28 02:56:05;;;;;;;;;;;;;;;18.50;56.97;101081.30;2312462;75;50375;-73
2023/03/28 02:59:23;;;;;;;;;;;;;;;18.46;57.03;101088.82;2293175;76;51036;-72
2023/03/28 03:02:24;;;;;;;;;;;;;;;18.38;57.22;101092.86;2312362;76;22856;-73
2023/03/28 03:05:26;;;;;;;;;;;;;;;18.37;57.34;101101.92;2280453;77;50050;-72
2023/03/28 03:08:28;;;;;;;;;;;;;;;18.41;57.37;101100.55;2280869;77;51492;-73
2023/03/28 03:11:30;;;;;;;;;;;;;;;18.46;57.32;101108.09;2256042;77;51695;-73
2023/03/28 03:14:33;;;;;;;;;;;;;;;18.55;57.16;101115.11;2311606;77;50292;-73
2023/03/28 03:17:34;;;;;;;;;;;;;;;18.58;57.03;101117.95;2291655;76;51573;-73
2023/03/28 03:20:36;;;;;;;;;;;;;;;18.58;57.00;101117.45;2313783;75;51484;-73
2023/03/28 03:23:38;;;;;;;;;;;;;;;18.57;56.95;101125.13;2280233;77;51420;-73
2023/03/28 03:26:39;;;;;;;;;;;;;;;18.55;56.92;101126.31;2311890;77;50307;-73
2023/03/28 03:29:41;;;;;;;;;;;;;;;18.53;56.90;101135.88;2312409;75;50224;-73
2023/03/28 03:32:44;;;;;;;;;;;;;;;18.49;56.88;101138.05;2323633;75;50733;-73
2023/03/28 03:35:45;;;;;;;;;;;;;;;18.44;56.96;101137.72;2280928;77;51553;-72
2023/03/28 03:38:47;;;;;;;;;;;;;;;18.39;57.07;101139.23;2281118;77;51729;-72
2023/03/28 03:41:49;;;;;;;;;;;;;;;18.37;57.19;101150.14;2280926;77;51419;-72
2023/03/28 03:44:53;;;;;;;;;;;;;;;18.38;57.38;101149.13;2311656;77;50315;-72
2023/03/28 03:47:53;;;;;;;;;;;;;;;18.47;57.24;101162.00;2281409;77;22416;-73
2023/03/28 03:50:55;;;;;;;;;;;;;;;18.53;57.18;101168.55;2255747;77;52710;-73
2023/03/28 03:53:57;;;;;;;;;;;;;;;18.50;57.12;101169.21;2311812;77;50208;-73
2023/03/28 03:56:59;;;;;;;;;;;;;;;18.49;57.08;101172.88;2311999;77;51467;-73
2023/03/28 04:00:06;;;;;;;;;;;;;;;18.45;57.14;101182.28;2284148;76;52353;-73
2023/03/28 04:03:03;;;;;;;;;;;;;;;18.42;57.14;101185.30;2289452;77;22269;-73
2023/03/28 04:06:05;;;;;;;;;;;;;;;18.37;57.19;101178.28;2311987;77;50625;-73
2023/03/28 04:09:07;;;;;;;;;;;;;;;18.30;57.33;101196.02;2280765;77;51386;-72
2023/03/28 04:12:09;;;;;;;;;;;;;;;18.30;57.34;101189.33;2312549;75;50370;-72
2023/03/28 04:15:11;;;;;;;;;;;;;;;18.27;57.42;101191.84;2328823;76;50679;-72
2023/03/28 04:18:14;;;;;;;;;;;;;;;18.33;57.45;101190.32;2317611;76;50281;-73
2023/03/28 04:21:16;;;;;;;;;;;;;;;18.37;57.40;101205.07;2333119;75;50334;-73
2023/03/28 04:24:19;;;;;;;;;;;;;;;18.44;57.28;101218.10;2286081;77;52427;-73
2023/03/28 04:27:25;;;;;;;;;;;;;;;18.56;57.03;101219.13;2311876;77;50669;-73
2023/03/28 04:30:24;;;;;;;;;;;;;;;18.62;56.84;101227.81;2281261;77;22416;-73
2023/03/28 04:33:32;;;;;;;;;;;;;;;18.62;56.71;101223.28;2282238;77;51525;-72
2023/03/28 04:36:33;;;;;;;;;;;;;;;18.62;56.79;101235.86;2282935;77;22431;-74
2023/03/28 04:39:34;;;;;;;;;;;;;;;18.59;56.85;101242.39;2282287;77;51409;-74
2023/03/28 04:42:36;;;;;;;;;;;;;;;18.57;56.85;101255.62;2282378;77;50510;-74
2023/03/28 04:45:38;;;;;;;;;;;;;;;18.52;56.79;101259.31;2313608;75;51458;-74
2023/03/28 04:48:40;;;;;;;;;;;;;;;18.46;56.77;101267.02;2292941;76;52329;-73
2023/03/28 04:51:41;;;;;;;;;;;;;;;18.39;56.90;101274.03;2280881;77;51520;-75
2023/03/28 04:54:43;;;;;;;;;;;;;;;18.34;57.05;101270.19;2323703;75;51572;-74
2023/03/28 04:57:45;;;;;;;;;;;;;;;18.39;57.11;101283.41;2280815;75;51393;-73
2023/03/28 05:00:48;;;;;;;;;;;;;;;18.48;56.98;101282.43;2305023;76;52326;-72
2023/03/28 05:03:49;;;;;;;;;;;;;;;18.57;56.94;101283.26;2347151;76;51579;-72
2023/03/28 05:06:51;;;;;;;;;;;;;;;18.62;56.68;101292.97;2333856;76;51544;-74
2023/03/28 05:09:53;;;;;;;;;;;;;;;18.61;56.55;101296.67;2275509;78;50709;-73
2023/03/28 05:12:54;;;;;;;;;;;;;;;18.60;56.46;101302.19;2275019;77;52354;-73
2023/03/28 05:15:56;;;;;;;;;;;;;;;18.58;56.44;101305.56;2244866;78;51657;-74
2023/03/28 05:18:57;;;;;;;;;;;;;;;18.55;56.41;101316.59;2275472;78;51474;-73
2023/03/28 05:22:00;;;;;;;;;;;;;;;18.44;54.31;101318.59;2245046;78;51512;-74
2023/03/28 05:25:01;;;;;;;;;;;;;;;18.40;54.71;101326.64;2280995;75;51909;-72
2023/03/28 05:28:03;;;;;;;;;;;;;;;18.37;54.83;101324.77;2350065;75;50419;-73
2023/03/28 05:31:06;;;;;;;;;;;;;;;18.30;55.10;101330.48;2296753;76;51423;-73
2023/03/28 05:34:08;;;;;;;;;;;;;;;18.34;55.05;101326.45;2318075;76;50757;-73
2023/03/28 05:37:09;;;;;;;;;;;;;;;18.42;54.91;101336.70;2317710;75;51229;-73
2023/03/28 05:40:11;;;;;;;;;;;;;;;18.54;54.74;101341.22;2347347;75;51462;-73
2023/03/28 05:43:13;;;;;;;;;;;;;;;18.59;54.57;101347.42;2347259;74;51547;-74
2023/03/28 05:46:14;;;;;;;;;;;;;;;18.60;54.51;101341.05;2317781;76;51390;-75
2023/03/28 05:49:16;;;;;;;;;;;;;;;18.57;54.55;101346.24;2289907;75;52321;-75
2023/03/28 05:52:17;;;;;;;;;;;;;;;18.55;54.63;101357.66;2308259;75;51526;-73
2023/03/28 05:55:19;;;;;;;;;;;;;;;18.53;54.76;101362.34;2353467;74;50240;-75
2023/03/28 05:58:21;;;;;;;;;;;;;;;18.56;54.88;101374.56;2350299;75;50260;-73
2023/03/28 06:01:26;;;;;;;;;;;;;;;18.59;54.98;101382.27;2269625;76;51260;-74
2023/03/28 06:04:26;;;;;;;;;;;;;;;18.65;55.02;101381.59;2282229;77;22383;-74
2023/03/28 06:07:28;;;;;;;;;;;;;;;18.68;54.97;101387.48;2313965;77;50618;-74
2023/03/28 06:10:30;;;;;;;;;;;;;;;18.79;54.90;101389.03;2313845;77;50661;-74
2023/03/28 06:13:31;;;;;;;;;;;;;;;18.95;54.63;101392.73;2282423;77;49656;-74
2023/03/28 06:16:33;;;;;;;;;;;;;;;19.02;54.54;101399.11;2257613;77;51748;-73
2023/03/28 06:19:35;;;;;;;;;;;;;;;19.05;54.62;101398.25;2281967;77;50731;-73
2023/03/28 06:22:36;;;;;;;;;;;;;;;19.08;54.70;101405.96;2313678;76;51450;-73
2023/03/28 06:25:38;;;;;;;;;;;;;;;19.10;54.76;101412.52;2282382;77;51602;-73
2023/03/28 06:28:40;;;;;;;;;;;;;;;19.08;54.88;101411.83;2309972;77;50785;-74
2023/03/28 06:31:41;;;;;;;;;;;;;;;19.08;54.92;101421.22;2293845;77;51498;-74
2023/03/28 06:34:43;;;;;;;;;;;;;;;19.06;54.99;101420.55;2280829;77;51419;-74
2023/03/28 06:37:44;;;;;;;;;;;;;;;19.02;55.05;101423.24;2255737;76;52229;-74
2023/03/28 06:40:46;;;;;;;;;;;;;;;19.01;55.04;101418.86;2311936;77;50596;-74
2023/03/28 06:43:48;;;;;;;;;;;;;;;19.00;55.09;101435.47;2280433;77;50734;-74
2023/03/28 06:46:49;;;;;;;;;;;;;;;19.01;55.15;101428.25;2311906;77;51467;-73
2023/03/28 06:49:51;;;;;;;;;;;;;;;19.01;55.20;101437.64;2281179;77;52342;-74
2023/03/28 06:52:52;;;;;;;;;;;;;;;19.02;55.15;101433.97;2280687;77;51397;-74
2023/03/28 06:55:54;;;;;;;;;;;;;;;18.98;55.19;101441.49;2311565;77;50221;-74
2023/03/28 06:58:56;;;;;;;;;;;;;;;18.99;55.18;101446.38;2313368;76;50754;-74
2023/03/28 07:01:57;;;;;;;;;;;;;;;18.98;55.20;101448.70;2290546;76;52518;-74
2023/03/28 07:04:59;;;;;;;;;;;;;;;18.97;55.16;101452.41;2280921;77;51466;-73
2023/03/28 07:08:01;;;;;;;;;;;;;;;18.95;55.18;101458.43;2312022;77;51450;-73
2023/03/28 07:11:02;;;;;;;;;;;;;;;18.95;55.17;101450.39;2312336;75;50665;-74
2023/03/28 07:14:04;;;;;;;;;;;;;;;18.91;55.18;101460.11;2292896;76;51678;-74
2023/03/28 07:17:05;;;;;;;;;;;;;;;18.88;55.20;101463.13;2312076;77;51428;-75
2023/03/28 07:20:07;;;;;;;;;;;;;;;18.87;55.17;101474.01;2304550;76;51591;-75
2023/03/28 07:23:09;;;;;;;;;;;;;;;18.83;55.18;101469.48;2339996;76;51449;-75
2023/03/28 07:26:11;;;;;;;;;;;;;;;18.85;55.13;101467.45;2317851;76;51381;-75
2023/03/28 07:29:12;;;;;;;;;;;;;;;18.89;55.01;101474.69;2318404;75;50060;-74
2023/03/28 07:32:14;;;;;;;;;;;;;;;18.88;54.90;101472.52;2305167;76;50098;-75
2023/03/28 07:35:16;;;;;;;;;;;;;;;18.91;54.83;101484.75;2347231;76;51635;-75
2023/03/28 07:38:17;;;;;;;;;;;;;;;18.90;54.77;101484.39;2291317;75;51544;-74
2023/03/28 07:41:21;;;;;;;;;;;;;;;18.90;54.68;101482.55;2305229;76;51416;-74
2023/03/28 07:44:22;;;;;;;;;;;;;;;18.91;54.58;101490.95;2347119;74;51523;-75
2023/03/28 07:47:24;;;;;;;;;;;;;;;18.91;54.55;101497.66;2347439;76;50284;-74
2023/03/28 07:50:26;;;;;;;;;;;;;;;18.91;54.50;101494.97;2292066;76;51775;-75
2023/03/28 07:53:28;;;;;;;;;;;;;;;18.90;54.48;101506.69;2347226;74;50378;-75
2023/03/28 07:56:29;;;;;;;;;;;;;;;18.90;54.44;101505.34;2347394;75;50722;-75
2023/03/28 07:59:31;;;;;;;;;;;;;;;18.89;54.38;101511.72;2347306;76;50277;-75
2023/03/28 08:02:32;;;;;;;;;;;;;;;18.89;54.31;101510.89;2292035;76;51067;-74
2023/03/28 08:05:37;;;;;;;;;;;;;;;18.87;54.30;101513.72;2317858;76;50683;-75
2023/03/28 08:08:37;;;;;;;;;;;;;;;18.87;54.27;101518.25;2336941;75;23013;-74
2023/03/28 08:11:39;;;;;;;;;;;;;;;18.84;54.24;101518.08;2334389;76;50347;-73
2023/03/28 08:14:41;;;;;;;;;;;;;;;18.83;54.20;101514.20;2317389;76;51700;-73
2023/03/28 08:17:43;;;;;;;;;;;;;;;18.82;54.19;101529.46;2347423;75;50204;-75
2023/03/28 08:20:44;;;;;;;;;;;;;;;18.82;54.16;101525.95;2317770;76;50341;-74
2023/03/28 08:23:46;;;;;;;;;;;;;;;18.81;54.16;101536.34;2347092;76;50632;-73
2023/03/28 08:26:48;;;;;;;;;;;;;;;18.80;54.11;101544.03;2318041;76;51023;-74
2023/03/28 08:29:50;;;;;;;;;;;;;;;18.77;54.06;101533.12;2317783;76;50379;-74
2023/03/28 08:32:52;;;;;;;;;;;;;;;18.75;54.03;101534.27;2347446;75;50131;-74
2023/03/28 08:35:53;;;;;;;;;;;;;;;18.73;54.01;101534.44;2347223;74;50408;-74
2023/03/28 08:38:59;;;;;;;;;;;;;;;18.69;54.04;101540.61;2304986;76;52360;-73
2023/03/28 08:42:04;;;;;;;;;;;;;;;18.67;54.07;101542.61;2290993;76;22326;-74
2023/03/28 08:45:08;;;;;;;;;;;;;;;18.64;54.05;101543.45;2311661;77;50365;-74
2023/03/28 08:48:21;;;;;;;;;;;;;;;18.57;54.16;101551.78;2312004;77;51555;-72
2023/03/28 08:51:30;;;;;;;;;;;;;;;18.54;54.22;101552.95;2280690;77;50994;-74
2023/03/28 08:54:35;;;;;;;;;;;;;;;18.57;54.13;101555.80;2280870;77;51510;-74
2023/03/28 08:57:36;;;;;;;;;;;;;;;18.59;54.06;101553.81;2312273;76;22692;-73
2023/03/28 09:00:38;;;;;;;;;;;;;;;18.59;54.07;101568.55;2311882;77;50384;-74
2023/03/28 09:03:39;;;;;;;;;;;;;;;18.58;54.05;101567.72;2280253;77;49606;-75
2023/03/28 09:06:41;;;;;;;;;;;;;;;18.57;54.07;101571.38;2280868;77;50325;-72
2023/03/28 09:09:47;;;;;;;;;;;;;;;18.53;54.14;101570.55;2323054;76;50712;-73
2023/03/28 09:12:57;;;;;;;;;;;;;;;18.48;54.26;101579.89;2275359;78;51643;-73
2023/03/28 09:16:05;;;;;;;;;;;;;;;18.45;54.43;101578.87;2275107;78;51571;-74
2023/03/28 09:19:11;;;;;;;;;;;;;;;18.45;54.56;101592.78;2275449;78;22359;-74
2023/03/28 09:22:23;;;;;;;;;;;;;;;18.44;54.57;101587.90;2275336;78;50302;-74
2023/03/28 09:25:35;;;;;;;;;;;;;;;18.41;54.56;101582.86;2275116;77;51638;-74
2023/03/28 09:28:41;;;;;;;;;;;;;;;18.38;54.48;101591.73;2244863;78;52345;-74
2023/03/28 09:31:47;;;;;;;;;;;;;;;18.39;54.42;101601.44;2245015;78;51162;-73
2023/03/28 09:34:49;;;;;;;;;;;;;;;18.39;54.34;101587.53;2275211;78;50868;-74
2023/03/28 09:37:55;;;;;;;;;;;;;;;18.41;54.29;101593.58;2271772;77;51509;-75
2023/03/28 09:40:58;;;;;;;;;;;;;;;18.40;54.31;101599.12;2323604;76;50154;-76
2023/03/28 09:44:00;;;;;;;;;;;;;;;18.37;54.34;101594.05;2311561;77;51494;-75
2023/03/28 09:47:01;;;;;;;;;;;;;;;18.35;54.41;101594.23;2311870;76;52214;-74
2023/03/28 09:50:03;;;;;;;;;;;;;;;18.33;54.50;101620.84;2280801;77;51419;-74
2023/03/28 09:53:05;;;;;;;;;;;;;;;18.31;54.61;101611.61;2280690;77;52449;-74
2023/03/28 09:56:14;;;;;;;;;;;;;;;18.33;54.63;101621.67;2311817;77;50272;-74
2023/03/28 09:59:20;;;;;;;;;;;;;;;18.33;54.62;101615.48;2310956;77;51470;-75
2023/03/28 10:02:25;;;;;;;;;;;;;;;18.28;54.65;101617.28;2305506;77;51470;-74
2023/03/28 10:05:29;;;;;;;;;;;;;;;18.29;54.58;101620.33;2280163;77;52426;-73
2023/03/28 10:08:32;;;;;;;;;;;;;;;18.35;54.40;101618.34;2311670;75;51568;-74
2023/03/28 10:11:36;;;;;;;;;;;;;;;18.43;54.19;101613.53;2329552;75;50694;-73
2023/03/28 10:14:38;;;;;;;;;;;;;;;18.44;54.07;101618.72;2333838;75;50278;-74
2023/03/28 10:17:39;;;;;;;;;;;;;;;18.44;53.97;101628.09;2317545;76;52420;-74
2023/03/28 10:20:41;;;;;;;;;;;;;;;18.42;53.93;101616.72;2347218;76;50291;-73
2023/03/28 10:23:53;;;;;;;;;;;;;;;18.38;54.00;101626.06;2317405;76;50065;-74
2023/03/28 10:26:59;;;;;;;;;;;;;;;18.36;54.01;101626.70;2347203;75;51524;-74
2023/03/28 10:30:09;;;;;;;;;;;;;;;18.34;54.07;101628.73;2317641;76;51230;-73
2023/03/28 10:33:20;;;;;;;;;;;;;;;18.29;54.14;101635.06;2317713;76;52418;-73
2023/03/28 10:36:30;;;;;;;;;;;;;;;18.26;54.40;101639.37;2347555;76;24904;-73
2023/03/28 10:39:32;;;;;;;;;;;;;;;18.22;54.35;101632.66;2346343;76;51469;-74
2023/03/28 10:42:40;;;;;;;;;;;;;;;18.28;54.22;101626.66;2348546;74;51582;-73
2023/03/28 10:45:42;;;;;;;;;;;;;;;18.37;53.96;101635.58;2304946;76;51595;-74
2023/03/28 10:48:48;;;;;;;;;;;;;;;18.39;53.85;101628.23;2317935;76;51536;-73
2023/03/28 10:51:50;;;;;;;;;;;;;;;18.39;53.76;101630.41;2347568;74;51611;-75
2023/03/28 10:54:56;;;;;;;;;;;;;;;18.38;53.75;101636.78;2347334;74;50617;-73
2023/03/28 10:58:15;;;;;;;;;;;;;;;18.36;53.77;101635.25;2317517;76;51186;-74
2023/03/28 11:01:20;;;;;;;;;;;;;;;18.35;53.72;101649.16;2347529;76;50402;-74
2023/03/28 11:04:40;;;;;;;;;;;;;;;18.32;53.78;101645.96;2347325;76;50670;-74
2023/03/28 11:07:46;;;;;;;;;;;;;;;18.28;53.85;101646.75;2347518;74;51452;-75
2023/03/28 11:10:52;;;;;;;;;;;;;;;18.27;54.08;101642.41;2317563;76;52191;-73
2023/03/28 11:13:58;;;;;;;;;;;;;;;18.20;54.13;101637.33;2348381;75;51434;-72
2023/03/28 11:17:14;;;;;;;;;;;;;;;18.22;54.00;101634.00;2311693;76;50697;-73
2023/03/28 11:20:17;;;;;;;;;;;;;;;18.32;53.77;101638.76;2312397;75;51497;-75
2023/03/28 11:23:20;;;;;;;;;;;;;;;18.37;53.53;101638.27;2280359;77;52403;-75
2023/03/28 11:26:40;;;;;;;;;;;;;;;18.39;53.42;101647.83;2311851;76;51421;-74
2023/03/28 11:29:48;;;;;;;;;;;;;;;18.41;53.29;101645.00;2312547;75;22282;-74
2023/03/28 11:32:51;;;;;;;;;;;;;;;18.39;53.30;101646.99;2326629;74;51525;-74
2023/03/28 11:36:01;;;;;;;;;;;;;;;18.39;53.27;101654.52;2279045;77;52448;-75
2023/03/28 11:39:04;;;;;;;;;;;;;;;18.35;53.37;101654.52;2311912;76;50460;-74
2023/03/28 11:42:07;;;;;;;;;;;;;;;18.30;53.50;101651.47;2312082;76;51533;-74
2023/03/28 11:45:10;;;;;;;;;;;;;;;18.23;53.77;101653.91;2311822;77;50285;-73
2023/03/28 11:48:13;;;;;;;;;;;;;;;18.19;53.84;101647.71;2279523;77;52402;-73
2023/03/28 11:51:16;;;;;;;;;;;;;;;18.21;53.77;101652.39;2312178;77;50350;-74
2023/03/28 11:54:29;;;;;;;;;;;;;;;18.28;53.50;101656.97;2307647;76;50033;-75
2023/03/28 11:57:35;;;;;;;;;;;;;;;18.33;53.41;101645.78;2311160;76;51514;-74
2023/03/28 12:00:41;;;;;;;;;;;;;;;18.35;53.33;101646.48;2281686;77;51566;-74
2023/03/28 12:03:47;;;;;;;;;;;;;;;18.35;53.30;101644.30;2308106;76;52427;-74
2023/03/28 12:06:55;;;;;;;;;;;;;;;18.32;53.37;101649.48;2346478;76;50284;-74
2023/03/28 12:09:57;;;;;;;;;;;;;;;18.31;53.38;101645.09;2345051;76;22328;-73
2023/03/28 12:13:00;;;;;;;;;;;;;;;18.28;53.51;101636.04;2347196;76;51502;-74
2023/03/28 12:16:04;;;;;;;;;;;;;;;18.21;53.67;101650.58;2345858;74;51596;-74
2023/03/28 12:19:06;;;;;;;;;;;;;;;18.22;53.80;101649.56;2315990;76;50220;-74
2023/03/28 12:22:10;;;;;;;;;;;;;;;18.19;53.83;101645.87;2347170;76;50545;-75
2023/03/28 12:25:23;;;;;;;;;;;;;;;18.18;53.78;101637.97;2335020;74;55527;-74
2023/03/28 12:28:31;;;;;;;;;;;;;;;18.27;53.61;101646.42;2342454;75;52370;-75
2023/03/28 12:31:49;;;;;;;;;;;;;;;18.36;53.34;101644.63;2323246;76;50352;-75
2023/03/28 12:34:53;;;;;;;;;;;;;;;18.40;53.16;101636.13;2310425;76;50689;-74
2023/03/28 12:37:57;;;;;;;;;;;;;;;18.43;53.09;101638.48;2236008;77;49613;-74
2023/03/28 12:40:59;;;;;;;;;;;;;;;18.43;53.01;101645.19;2311929;76;51614;-73
2023/03/28 12:44:02;;;;;;;;;;;;;;;18.41;53.02;101645.00;2311632;77;50628;-74
2023/03/28 12:47:05;;;;;;;;;;;;;;;18.36;53.13;101649.48;2307923;76;50694;-74
2023/03/28 12:50:08;;;;;;;;;;;;;;;18.33;53.23;101651.66;2295918;75;49586;-73
2023/03/28 12:53:10;;;;;;;;;;;;;;;18.27;53.34;101648.59;2330023;75;50292;-74
2023/03/28 12:56:12;;;;;;;;;;;;;;;18.20;53.66;101652.06;2311926;77;50827;-74
2023/03/28 12:59:32;;;;;;;;;;;;;;;18.19;53.61;101644.53;2312723;77;50642;-74
2023/03/28 13:02:48;;;;;;;;;;;;;;;18.23;53.49;101639.69;2280564;77;52610;-74
2023/03/28 13:05:54;;;;;;;;;;;;;;;18.36;53.15;101648.14;2310783;76;51548;-73
2023/03/28 13:09:03;;;;;;;;;;;;;;;18.45;52.84;101647.22;2311768;77;50228;-74
2023/03/28 13:12:25;;;;;;;;;;;;;;;18.45;52.78;101649.89;2312586;75;50620;-74
2023/03/28 13:15:28;;;;;;;;;;;;;;;18.45;52.80;101649.06;2292905;77;51923;-74
2023/03/28 13:18:31;;;;;;;;;;;;;;;18.47;52.69;101647.91;2311846;77;50348;-74
2023/03/28 13:21:46;;;;;;;;;;;;;;;18.42;52.85;101651.55;2310864;75;50810;-75
2023/03/28 13:24:48;;;;;;;;;;;;;;;18.38;53.02;101652.02;2311671;77;51503;-74
2023/03/28 13:27:50;;;;;;;;;;;;;;;18.31;53.19;101653.13;2280404;77;51136;-75
2023/03/28 13:31:10;;;;;;;;;;;;;;;18.25;53.39;101648.41;2311997;77;51325;-74
2023/03/28 13:34:16;;;;;;;;;;;;;;;18.21;53.53;101640.34;2311638;77;51432;-74
2023/03/28 13:37:19;;;;;;;;;;;;;;;18.21;53.52;101646.56;2305306;76;50270;-74
2023/03/28 13:40:39;;;;;;;;;;;;;;;18.25;53.41;101639.03;2280918;75;51712;-74
2023/03/28 13:43:43;;;;;;;;;;;;;;;18.28;53.30;101653.45;2311647;77;50268;-74
2023/03/28 13:46:45;;;;;;;;;;;;;;;18.26;53.30;101637.55;2311855;77;50365;-74
2023/03/28 13:49:51;;;;;;;;;;;;;;;18.25;53.38;101640.37;2312047;77;51428;-74
2023/03/28 13:52:53;;;;;;;;;;;;;;;18.23;53.44;101629.80;2293331;77;51103;-75
2023/03/28 13:56:13;;;;;;;;;;;;;;;18.19;53.54;101637.83;2311700;77;51461;-75
2023/03/28 13:59:18;;;;;;;;;;;;;;;18.19;53.59;101628.45;2311722;77;50153;-76
2023/03/28 14:02:21;;;;;;;;;;;;;;;18.17;53.75;101629.61;2311809;77;50662;-73
2023/03/28 14:05:23;;;;;;;;;;;;;;;18.17;53.82;101630.95;2278145;77;51719;-74
2023/03/28 14:08:25;;;;;;;;;;;;;;;18.21;53.67;101629.15;2280425;77;52179;-75
2023/03/28 14:11:31;;;;;;;;;;;;;;;18.33;53.49;101632.39;2311803;77;51461;-75
2023/03/28 14:14:34;;;;;;;;;;;;;;;18.42;53.30;101634.14;2280563;77;50269;-74
2023/03/28 14:17:36;;;;;;;;;;;;;;;18.52;53.09;101634.51;2276683;77;52523;-74
2023/03/28 14:20:38;;;;;;;;;;;;;;;18.51;53.12;101626.97;2311929;76;51413;-74
2023/03/28 14:23:40;;;;;;;;;;;;;;;18.54;53.09;101633.35;2323474;76;50232;-73
2023/03/28 14:26:42;;;;;;;;;;;;;;;18.60;52.91;101634.08;2311964;77;51599;-74
2023/03/28 14:29:56;;;;;;;;;;;;;;;18.61;53.07;101628.20;2280565;77;52377;-72
2023/03/28 14:32:59;;;;;;;;;;;;;;;18.47;53.80;101629.62;2280825;77;50718;-73
2023/03/28 14:36:06;;;;;;;;;;;;;;;18.39;54.03;101630.41;2311646;77;50254;-74
2023/03/28 14:39:09;;;;;;;;;;;;;;;18.37;54.27;101627.07;2311896;77;22320;-74
2023/03/28 14:42:15;;;;;;;;;;;;;;;18.36;54.28;101624.03;2258057;75;51844;-75
2023/03/28 14:45:16;;;;;;;;;;;;;;;18.32;54.40;101620.00;2299508;75;51617;-74
2023/03/28 14:48:19;;;;;;;;;;;;;;;18.36;54.43;101624.53;2282685;77;51411;-75
2023/03/28 14:51:21;;;;;;;;;;;;;;;18.36;54.58;101628.55;2329511;75;51511;-76
2023/03/28 14:54:24;;;;;;;;;;;;;;;18.33;54.62;101629.71;2299435;77;51117;-74
2023/03/28 14:57:26;;;;;;;;;;;;;;;18.34;54.66;101635.43;2313664;77;50762;-75
2023/03/28 15:00:29;;;;;;;;;;;;;;;18.31;54.81;101627.68;2314262;75;50267;-76
2023/03/28 15:03:38;;;;;;;;;;;;;;;18.32;54.87;101627.20;2312881;76;50301;-77
2023/03/28 15:06:40;;;;;;;;;;;;;;;18.31;54.90;101631.70;2285676;75;51346;-74
2023/03/28 15:09:42;;;;;;;;;;;;;;;18.32;54.97;101632.06;2323197;75;50239;-75
2023/03/28 15:12:45;;;;;;;;;;;;;;;18.35;55.02;101628.23;2297816;76;50285;-75
2023/03/28 15:15:46;;;;;;;;;;;;;;;18.34;55.01;101627.39;2329059;75;50366;-74
2023/03/28 15:18:50;;;;;;;;;;;;;;;18.35;55.01;101626.38;2292755;77;51220;-74
2023/03/28 15:21:53;;;;;;;;;;;;;;;18.33;55.22;101631.05;2351820;75;50840;-72
2023/03/28 15:24:55;;;;;;;;;;;;;;;18.32;55.30;101632.06;2334928;75;51470;-73
2023/03/28 15:27:58;;;;;;;;;;;;;;;18.34;55.29;101625.19;2314576;74;51498;-73
2023/03/28 15:30:59;;;;;;;;;;;;;;;18.31;55.35;101620.15;2307941;75;51302;-72
2023/03/28 15:34:01;;;;;;;;;;;;;;;18.31;55.44;101621.48;2353252;75;50341;-72
2023/03/28 15:37:05;;;;;;;;;;;;;;;18.33;55.46;101624.86;2317339;75;50284;-72
2023/03/28 15:40:20;;;;;;;;;;;;;;;18.33;55.60;101619.50;2353521;74;22407;-71
2023/03/28 15:43:36;;;;;;;;;;;;;;;18.32;55.58;101621.34;2305174;76;52541;-71